sensor_id;sensor_type;location;lat;lon;timestamp;P1;durP1;ratioP1;P2;durP2;ratioP2
12048;SDS011;6085;49.452;8.502;2023-04-24T00:00:23;1.52;;;1.35;;
12048;SDS011;6085;49.452;8.502;2023-04-24T00:04:26;1.95;;;1.30;;
12048;SDS011;6085;49.452;8.502;2023-04-24T00:08:28;2.35;;;1.52;;
12048;SDS011;6085;49.452;8.502;2023-04-24T00:12:30;1.52;;;1.42;;
12048;SDS011;6085;49.452;8.502;2023-04-24T00:16:32;2.25;;;1.48;;
12048;SDS011;6085;49.452;8.502;2023-04-24T00:20:35;2.83;;;1.35;;
12048;SDS011;6085;49.452;8.502;2023-04-24T00:24:37;2.17;;;1.40;;
12048;SDS011;6085;49.452;8.502;2023-04-24T00:28:39;2.35;;;1.30;;
12048;SDS011;6085;49.452;8.502;2023-04-24T00:32:41;1.42;;;1.33;;
12048;SDS011;6085;49.452;8.502;2023-04-24T00:36:45;1.95;;;1.42;;
12048;SDS011;6085;49.452;8.502;2023-04-24T00:40:49;2.53;;;1.20;;
12048;SDS011;6085;49.452;8.502;2023-04-24T00:44:51;1.75;;;1.45;;
12048;SDS011;6085;49.452;8.502;2023-04-24T00:48:53;3.15;;;1.40;;
12048;SDS011;6085;49.452;8.502;2023-04-24T00:52:56;1.88;;;1.55;;
12048;SDS011;6085;49.452;8.502;2023-04-24T00:56:58;1.85;;;1.40;;
12048;SDS011;6085;49.452;8.502;2023-04-24T01:01:01;2.03;;;1.40;;
12048;SDS011;6085;49.452;8.502;2023-04-24T01:05:07;1.42;;;1.33;;
12048;SDS011;6085;49.452;8.502;2023-04-24T01:09:10;1.55;;;1.40;;
12048;SDS011;6085;49.452;8.502;2023-04-24T01:13:14;3.13;;;1.60;;
12048;SDS011;6085;49.452;8.502;2023-04-24T01:17:16;1.40;;;1.30;;
12048;SDS011;6085;49.452;8.502;2023-04-24T01:21:18;1.40;;;1.30;;
12048;SDS011;6085;49.452;8.502;2023-04-24T01:25:24;1.70;;;1.52;;
12048;SDS011;6085;49.452;8.502;2023-04-24T01:29:27;1.67;;;1.23;;
12048;SDS011;6085;49.452;8.502;2023-04-24T01:33:29;2.80;;;1.50;;
12048;SDS011;6085;49.452;8.502;2023-04-24T01:37:31;1.30;;;1.20;;
12048;SDS011;6085;49.452;8.502;2023-04-24T01:41:34;3.80;;;1.48;;
12048;SDS011;6085;49.452;8.502;2023-04-24T01:45:37;1.27;;;1.20;;
12048;SDS011;6085;49.452;8.502;2023-04-24T01:49:38;4.43;;;1.48;;
12048;SDS011;6085;49.452;8.502;2023-04-24T01:53:40;1.35;;;1.27;;
12048;SDS011;6085;49.452;8.502;2023-04-24T01:57:44;2.08;;;1.20;;
12048;SDS011;6085;49.452;8.502;2023-04-24T02:01:46;1.70;;;1.20;;
12048;SDS011;6085;49.452;8.502;2023-04-24T02:05:48;1.60;;;1.30;;
12048;SDS011;6085;49.452;8.502;2023-04-24T02:09:50;3.30;;;1.23;;
12048;SDS011;6085;49.452;8.502;2023-04-24T02:13:53;1.27;;;1.10;;
12048;SDS011;6085;49.452;8.502;2023-04-24T02:17:55;2.35;;;1.30;;
12048;SDS011;6085;49.452;8.502;2023-04-24T02:21:57;1.83;;;1.38;;
12048;SDS011;6085;49.452;8.502;2023-04-24T02:25:59;1.25;;;1.10;;
12048;SDS011;6085;49.452;8.502;2023-04-24T02:30:02;1.50;;;1.10;;
12048;SDS011;6085;49.452;8.502;2023-04-24T02:34:05;1.60;;;1.30;;
12048;SDS011;6085;49.452;8.502;2023-04-24T02:38:08;2.22;;;1.08;;
12048;SDS011;6085;49.452;8.502;2023-04-24T02:42:10;3.38;;;1.25;;
12048;SDS011;6085;49.452;8.502;2023-04-24T02:46:14;1.85;;;1.27;;
12048;SDS011;6085;49.452;8.502;2023-04-24T02:50:16;2.20;;;1.70;;
12048;SDS011;6085;49.452;8.502;2023-04-24T02:54:17;1.65;;;1.42;;
12048;SDS011;6085;49.452;8.502;2023-04-24T02:58:19;2.78;;;1.40;;
12048;SDS011;6085;49.452;8.502;2023-04-24T03:02:23;2.63;;;1.83;;
12048;SDS011;6085;49.452;8.502;2023-04-24T03:06:25;4.85;;;1.80;;
12048;SDS011;6085;49.452;8.502;2023-04-24T03:10:27;1.90;;;1.80;;
12048;SDS011;6085;49.452;8.502;2023-04-24T03:14:29;2.60;;;2.13;;
12048;SDS011;6085;49.452;8.502;2023-04-24T03:18:32;2.10;;;1.90;;
12048;SDS011;6085;49.452;8.502;2023-04-24T03:22:34;1.83;;;1.60;;
12048;SDS011;6085;49.452;8.502;2023-04-24T03:26:36;1.73;;;1.63;;
12048;SDS011;6085;49.452;8.502;2023-04-24T03:30:38;1.70;;;1.60;;
12048;SDS011;6085;49.452;8.502;2023-04-24T03:34:41;1.80;;;1.70;;
12048;SDS011;6085;49.452;8.502;2023-04-24T03:38:43;2.55;;;1.63;;
12048;SDS011;6085;49.452;8.502;2023-04-24T03:42:45;2.15;;;1.88;;
12048;SDS011;6085;49.452;8.502;2023-04-24T03:46:47;1.80;;;1.70;;
12048;SDS011;6085;49.452;8.502;2023-04-24T03:50:50;3.15;;;1.75;;
12048;SDS011;6085;49.452;8.502;2023-04-24T03:54:52;1.70;;;1.60;;
12048;SDS011;6085;49.452;8.502;2023-04-24T03:58:55;1.60;;;1.45;;
12048;SDS011;6085;49.452;8.502;2023-04-24T04:02:57;2.40;;;1.80;;
12048;SDS011;6085;49.452;8.502;2023-04-24T04:07:00;1.80;;;1.70;;
12048;SDS011;6085;49.452;8.502;2023-04-24T04:11:02;1.70;;;1.60;;
12048;SDS011;6085;49.452;8.502;2023-04-24T04:15:05;2.22;;;1.75;;
12048;SDS011;6085;49.452;8.502;2023-04-24T04:19:07;1.67;;;1.58;;
12048;SDS011;6085;49.452;8.502;2023-04-24T04:23:11;2.15;;;2.05;;
12048;SDS011;6085;49.452;8.502;2023-04-24T04:27:13;2.00;;;1.90;;
12048;SDS011;6085;49.452;8.502;2023-04-24T04:31:16;2.47;;;2.33;;
12048;SDS011;6085;49.452;8.502;2023-04-24T04:35:18;2.80;;;2.38;;
12048;SDS011;6085;49.452;8.502;2023-04-24T04:39:21;2.30;;;2.20;;
12048;SDS011;6085;49.452;8.502;2023-04-24T04:43:23;3.00;;;2.20;;
12048;SDS011;6085;49.452;8.502;2023-04-24T04:47:26;2.20;;;2.10;;
12048;SDS011;6085;49.452;8.502;2023-04-24T04:51:28;2.30;;;2.10;;
12048;SDS011;6085;49.452;8.502;2023-04-24T04:55:32;3.05;;;2.85;;
12048;SDS011;6085;49.452;8.502;2023-04-24T04:59:35;2.60;;;2.40;;
12048;SDS011;6085;49.452;8.502;2023-04-24T05:03:37;2.75;;;2.55;;
12048;SDS011;6085;49.452;8.502;2023-04-24T05:07:39;2.78;;;2.58;;
12048;SDS011;6085;49.452;8.502;2023-04-24T05:11:42;2.25;;;2.10;;
12048;SDS011;6085;49.452;8.502;2023-04-24T05:15:44;2.40;;;2.20;;
12048;SDS011;6085;49.452;8.502;2023-04-24T05:19:46;6.30;;;4.78;;
12048;SDS011;6085;49.452;8.502;2023-04-24T05:23:48;2.50;;;2.30;;
12048;SDS011;6085;49.452;8.502;2023-04-24T05:27:52;2.15;;;2.05;;
12048;SDS011;6085;49.452;8.502;2023-04-24T05:31:54;2.60;;;2.40;;
12048;SDS011;6085;49.452;8.502;2023-04-24T05:35:56;2.65;;;2.40;;
12048;SDS011;6085;49.452;8.502;2023-04-24T05:39:58;3.10;;;2.65;;
12048;SDS011;6085;49.452;8.502;2023-04-24T05:44:01;3.20;;;2.58;;
12048;SDS011;6085;49.452;8.502;2023-04-24T05:48:03;2.58;;;2.40;;
12048;SDS011;6085;49.452;8.502;2023-04-24T05:52:05;2.95;;;2.65;;
12048;SDS011;6085;49.452;8.502;2023-04-24T05:56:09;3.05;;;2.75;;
12048;SDS011;6085;49.452;8.502;2023-04-24T06:00:13;2.70;;;2.50;;
12048;SDS011;6085;49.452;8.502;2023-04-24T06:04:16;2.55;;;2.30;;
12048;SDS011;6085;49.452;8.502;2023-04-24T06:08:17;4.13;;;2.80;;
12048;SDS011;6085;49.452;8.502;2023-04-24T06:12:20;3.67;;;2.63;;
12048;SDS011;6085;49.452;8.502;2023-04-24T06:16:23;3.40;;;2.80;;
12048;SDS011;6085;49.452;8.502;2023-04-24T06:20:26;3.47;;;2.67;;
12048;SDS011;6085;49.452;8.502;2023-04-24T06:24:31;2.70;;;2.50;;
12048;SDS011;6085;49.452;8.502;2023-04-24T06:28:33;2.92;;;2.63;;
12048;SDS011;6085;49.452;8.502;2023-04-24T06:32:36;2.90;;;2.70;;
12048;SDS011;6085;49.452;8.502;2023-04-24T06:36:38;2.55;;;2.35;;
12048;SDS011;6085;49.452;8.502;2023-04-24T06:40:40;2.10;;;2.00;;
12048;SDS011;6085;49.452;8.502;2023-04-24T06:44:42;2.50;;;2.10;;
12048;SDS011;6085;49.452;8.502;2023-04-24T06:48:46;1.75;;;1.70;;
12048;SDS011;6085;49.452;8.502;2023-04-24T06:52:48;1.58;;;1.48;;
12048;SDS011;6085;49.452;8.502;2023-04-24T06:56:50;1.80;;;1.70;;
12048;SDS011;6085;49.452;8.502;2023-04-24T07:00:52;1.80;;;1.70;;
12048;SDS011;6085;49.452;8.502;2023-04-24T07:04:55;1.70;;;1.30;;
12048;SDS011;6085;49.452;8.502;2023-04-24T07:08:58;1.40;;;1.27;;
12048;SDS011;6085;49.452;8.502;2023-04-24T07:13:01;1.33;;;1.33;;
12048;SDS011;6085;49.452;8.502;2023-04-24T07:17:04;1.38;;;1.25;;
12048;SDS011;6085;49.452;8.502;2023-04-24T07:21:07;1.75;;;1.02;;
12048;SDS011;6085;49.452;8.502;2023-04-24T07:25:09;1.35;;;1.25;;
12048;SDS011;6085;49.452;8.502;2023-04-24T07:29:12;1.10;;;1.10;;
12048;SDS011;6085;49.452;8.502;2023-04-24T07:33:14;1.10;;;1.10;;
12048;SDS011;6085;49.452;8.502;2023-04-24T07:37:17;1.50;;;1.40;;
12048;SDS011;6085;49.452;8.502;2023-04-24T07:41:20;1.60;;;1.50;;
12048;SDS011;6085;49.452;8.502;2023-04-24T07:45:22;1.95;;;1.65;;
12048;SDS011;6085;49.452;8.502;2023-04-24T07:49:26;2.75;;;1.25;;
12048;SDS011;6085;49.452;8.502;2023-04-24T07:53:29;1.60;;;1.45;;
12048;SDS011;6085;49.452;8.502;2023-04-24T07:57:31;1.50;;;1.40;;
12048;SDS011;6085;49.452;8.502;2023-04-24T08:01:33;1.40;;;1.20;;
12048;SDS011;6085;49.452;8.502;2023-04-24T08:05:35;2.10;;;1.50;;
12048;SDS011;6085;49.452;8.502;2023-04-24T08:09:39;1.52;;;1.20;;
12048;SDS011;6085;49.452;8.502;2023-04-24T08:13:42;1.80;;;1.50;;
12048;SDS011;6085;49.452;8.502;2023-04-24T08:17:44;1.10;;;1.10;;
12048;SDS011;6085;49.452;8.502;2023-04-24T08:21:46;1.00;;;1.00;;
12048;SDS011;6085;49.452;8.502;2023-04-24T08:25:49;1.40;;;1.30;;
12048;SDS011;6085;49.452;8.502;2023-04-24T08:29:52;1.50;;;1.40;;
12048;SDS011;6085;49.452;8.502;2023-04-24T08:33:54;1.50;;;1.40;;
12048;SDS011;6085;49.452;8.502;2023-04-24T08:37:56;2.10;;;1.50;;
12048;SDS011;6085;49.452;8.502;2023-04-24T08:42:00;1.52;;;1.42;;
12048;SDS011;6085;49.452;8.502;2023-04-24T08:46:07;1.75;;;1.60;;
12048;SDS011;6085;49.452;8.502;2023-04-24T08:50:10;1.70;;;1.60;;
12048;SDS011;6085;49.452;8.502;2023-04-24T08:54:12;1.70;;;1.60;;
12048;SDS011;6085;49.452;8.502;2023-04-24T08:58:17;1.60;;;1.50;;
12048;SDS011;6085;49.452;8.502;2023-04-24T09:02:19;1.52;;;1.42;;
12048;SDS011;6085;49.452;8.502;2023-04-24T09:06:22;2.17;;;1.60;;
12048;SDS011;6085;49.452;8.502;2023-04-24T09:10:26;3.17;;;1.92;;
12048;SDS011;6085;49.452;8.502;2023-04-24T09:14:31;1.50;;;1.40;;
12048;SDS011;6085;49.452;8.502;2023-04-24T09:18:36;2.10;;;2.00;;
12048;SDS011;6085;49.452;8.502;2023-04-24T09:22:38;1.98;;;1.70;;
12048;SDS011;6085;49.452;8.502;2023-04-24T09:26:40;2.80;;;2.05;;
12048;SDS011;6085;49.452;8.502;2023-04-24T09:30:43;2.20;;;2.00;;
12048;SDS011;6085;49.452;8.502;2023-04-24T09:34:45;1.70;;;1.60;;
12048;SDS011;6085;49.452;8.502;2023-04-24T09:38:48;1.60;;;1.50;;
12048;SDS011;6085;49.452;8.502;2023-04-24T09:42:55;2.13;;;1.77;;
12048;SDS011;6085;49.452;8.502;2023-04-24T09:47:02;1.95;;;1.85;;
12048;SDS011;6085;49.452;8.502;2023-04-24T09:51:09;1.90;;;1.80;;
12048;SDS011;6085;49.452;8.502;2023-04-24T09:55:16;2.75;;;2.00;;
12048;SDS011;6085;49.452;8.502;2023-04-24T09:59:19;1.90;;;1.80;;
12048;SDS011;6085;49.452;8.502;2023-04-24T10:03:24;2.03;;;1.90;;
12048;SDS011;6085;49.452;8.502;2023-04-24T10:07:30;1.70;;;1.60;;
12048;SDS011;6085;49.452;8.502;2023-04-24T10:11:34;2.58;;;1.58;;
12048;SDS011;6085;49.452;8.502;2023-04-24T10:15:36;1.75;;;1.65;;
12048;SDS011;6085;49.452;8.502;2023-04-24T10:19:40;2.08;;;1.98;;
12048;SDS011;6085;49.452;8.502;2023-04-24T10:23:43;1.60;;;1.50;;
12048;SDS011;6085;49.452;8.502;2023-04-24T10:27:47;1.48;;;1.40;;
12048;SDS011;6085;49.452;8.502;2023-04-24T10:31:50;1.40;;;1.30;;
12048;SDS011;6085;49.452;8.502;2023-04-24T10:35:53;1.45;;;1.40;;
12048;SDS011;6085;49.452;8.502;2023-04-24T10:39:56;1.48;;;1.38;;
12048;SDS011;6085;49.452;8.502;2023-04-24T10:44:03;1.35;;;1.27;;
12048;SDS011;6085;49.452;8.502;2023-04-24T10:48:07;1.73;;;1.63;;
12048;SDS011;6085;49.452;8.502;2023-04-24T10:52:14;1.67;;;1.58;;
12048;SDS011;6085;49.452;8.502;2023-04-24T10:56:16;1.73;;;1.63;;
12048;SDS011;6085;49.452;8.502;2023-04-24T11:00:19;1.60;;;1.50;;
12048;SDS011;6085;49.452;8.502;2023-04-24T11:04:29;1.75;;;1.65;;
12048;SDS011;6085;49.452;8.502;2023-04-24T11:08:36;2.67;;;2.00;;
12048;SDS011;6085;49.452;8.502;2023-04-24T11:12:39;1.88;;;1.70;;
12048;SDS011;6085;49.452;8.502;2023-04-24T11:16:44;1.85;;;1.75;;
12048;SDS011;6085;49.452;8.502;2023-04-24T11:20:52;1.90;;;1.80;;
12048;SDS011;6085;49.452;8.502;2023-04-24T11:24:57;2.65;;;2.17;;
12048;SDS011;6085;49.452;8.502;2023-04-24T11:29:06;2.10;;;1.90;;
12048;SDS011;6085;49.452;8.502;2023-04-24T11:33:08;2.10;;;2.00;;
12048;SDS011;6085;49.452;8.502;2023-04-24T11:37:10;2.20;;;2.10;;
12048;SDS011;6085;49.452;8.502;2023-04-24T11:41:15;2.30;;;2.10;;
12048;SDS011;6085;49.452;8.502;2023-04-24T11:45:17;2.17;;;1.88;;
12048;SDS011;6085;49.452;8.502;2023-04-24T11:49:22;3.05;;;2.40;;
12048;SDS011;6085;49.452;8.502;2023-04-24T11:53:25;2.55;;;2.25;;
12048;SDS011;6085;49.452;8.502;2023-04-24T11:57:29;3.17;;;2.67;;
12048;SDS011;6085;49.452;8.502;2023-04-24T12:01:42;3.88;;;2.50;;
12048;SDS011;6085;49.452;8.502;2023-04-24T12:05:45;3.67;;;2.30;;
12048;SDS011;6085;49.452;8.502;2023-04-24T12:09:48;2.58;;;2.25;;
12048;SDS011;6085;49.452;8.502;2023-04-24T12:13:52;3.80;;;2.63;;
12048;SDS011;6085;49.452;8.502;2023-04-24T12:17:55;2.80;;;2.60;;
12048;SDS011;6085;49.452;8.502;2023-04-24T12:22:00;3.35;;;2.60;;
12048;SDS011;6085;49.452;8.502;2023-04-24T12:26:04;2.25;;;2.10;;
12048;SDS011;6085;49.452;8.502;2023-04-24T12:30:10;3.67;;;2.60;;
12048;SDS011;6085;49.452;8.502;2023-04-24T12:34:18;2.83;;;2.40;;
12048;SDS011;6085;49.452;8.502;2023-04-24T12:38:21;3.53;;;2.70;;
12048;SDS011;6085;49.452;8.502;2023-04-24T12:42:25;2.50;;;2.30;;
12048;SDS011;6085;49.452;8.502;2023-04-24T12:46:30;3.28;;;2.53;;
12048;SDS011;6085;49.452;8.502;2023-04-24T12:50:32;2.80;;;2.58;;
12048;SDS011;6085;49.452;8.502;2023-04-24T12:54:34;2.45;;;2.25;;
12048;SDS011;6085;49.452;8.502;2023-04-24T12:58:36;2.10;;;2.00;;
12048;SDS011;6085;49.452;8.502;2023-04-24T13:02:39;3.42;;;2.58;;
12048;SDS011;6085;49.452;8.502;2023-04-24T13:06:41;2.90;;;2.60;;
12048;SDS011;6085;49.452;8.502;2023-04-24T13:10:43;2.05;;;1.92;;
12048;SDS011;6085;49.452;8.502;2023-04-24T13:14:45;3.42;;;2.30;;
12048;SDS011;6085;49.452;8.502;2023-04-24T13:18:49;2.72;;;2.53;;
12048;SDS011;6085;49.452;8.502;2023-04-24T13:22:50;3.85;;;2.45;;
12048;SDS011;6085;49.452;8.502;2023-04-24T13:26:52;2.45;;;2.10;;
12048;SDS011;6085;49.452;8.502;2023-04-24T13:30:54;2.72;;;2.42;;
12048;SDS011;6085;49.452;8.502;2023-04-24T13:34:58;2.72;;;2.10;;
12048;SDS011;6085;49.452;8.502;2023-04-24T13:39:00;2.53;;;2.33;;
12048;SDS011;6085;49.452;8.502;2023-04-24T13:43:03;2.60;;;2.40;;
12048;SDS011;6085;49.452;8.502;2023-04-24T13:47:05;2.42;;;2.20;;
12048;SDS011;6085;49.452;8.502;2023-04-24T13:51:08;2.78;;;2.30;;
12048;SDS011;6085;49.452;8.502;2023-04-24T13:55:11;2.30;;;2.10;;
12048;SDS011;6085;49.452;8.502;2023-04-24T13:59:13;2.80;;;2.10;;
12048;SDS011;6085;49.452;8.502;2023-04-24T14:03:14;5.18;;;2.78;;
12048;SDS011;6085;49.452;8.502;2023-04-24T14:07:18;2.38;;;2.17;;
12048;SDS011;6085;49.452;8.502;2023-04-24T14:11:20;2.53;;;2.20;;
12048;SDS011;6085;49.452;8.502;2023-04-24T14:15:22;2.22;;;2.03;;
12048;SDS011;6085;49.452;8.502;2023-04-24T14:19:24;2.58;;;2.30;;
12048;SDS011;6085;49.452;8.502;2023-04-24T14:23:28;2.60;;;2.40;;
12048;SDS011;6085;49.452;8.502;2023-04-24T14:27:30;4.45;;;2.53;;
12048;SDS011;6085;49.452;8.502;2023-04-24T14:31:34;4.55;;;2.92;;
12048;SDS011;6085;49.452;8.502;2023-04-24T14:35:36;4.47;;;3.10;;
12048;SDS011;6085;49.452;8.502;2023-04-24T14:39:39;3.10;;;2.90;;
12048;SDS011;6085;49.452;8.502;2023-04-24T14:43:41;3.40;;;3.10;;
12048;SDS011;6085;49.452;8.502;2023-04-24T14:47:43;3.60;;;3.30;;
12048;SDS011;6085;49.452;8.502;2023-04-24T14:51:46;3.80;;;3.50;;
12048;SDS011;6085;49.452;8.502;2023-04-24T14:55:49;3.90;;;3.60;;
12048;SDS011;6085;49.452;8.502;2023-04-24T14:59:51;3.25;;;3.05;;
12048;SDS011;6085;49.452;8.502;2023-04-24T15:03:53;2.65;;;2.45;;
12048;SDS011;6085;49.452;8.502;2023-04-24T15:07:55;2.50;;;2.30;;
12048;SDS011;6085;49.452;8.502;2023-04-24T15:11:59;3.00;;;2.75;;
12048;SDS011;6085;49.452;8.502;2023-04-24T15:16:01;3.10;;;2.80;;
12048;SDS011;6085;49.452;8.502;2023-04-24T15:20:04;3.20;;;2.90;;
12048;SDS011;6085;49.452;8.502;2023-04-24T15:24:08;2.97;;;2.75;;
12048;SDS011;6085;49.452;8.502;2023-04-24T15:28:12;3.42;;;2.83;;
12048;SDS011;6085;49.452;8.502;2023-04-24T15:32:15;2.42;;;2.33;;
12048;SDS011;6085;49.452;8.502;2023-04-24T15:36:17;3.30;;;2.95;;
12048;SDS011;6085;49.452;8.502;2023-04-24T15:40:19;2.75;;;2.53;;
12048;SDS011;6085;49.452;8.502;2023-04-24T15:44:23;2.67;;;2.47;;
12048;SDS011;6085;49.452;8.502;2023-04-24T15:48:25;2.70;;;2.50;;
12048;SDS011;6085;49.452;8.502;2023-04-24T15:52:28;3.00;;;2.70;;
12048;SDS011;6085;49.452;8.502;2023-04-24T15:56:30;4.03;;;2.67;;
12048;SDS011;6085;49.452;8.502;2023-04-24T16:00:33;4.43;;;2.55;;
12048;SDS011;6085;49.452;8.502;2023-04-24T16:04:36;2.75;;;2.08;;
12048;SDS011;6085;49.452;8.502;2023-04-24T16:08:38;2.50;;;2.30;;
12048;SDS011;6085;49.452;8.502;2023-04-24T16:12:40;2.08;;;1.98;;
12048;SDS011;6085;49.452;8.502;2023-04-24T16:16:43;2.50;;;2.30;;
12048;SDS011;6085;49.452;8.502;2023-04-24T16:20:45;2.50;;;2.30;;
12048;SDS011;6085;49.452;8.502;2023-04-24T16:24:47;2.65;;;2.45;;
12048;SDS011;6085;49.452;8.502;2023-04-24T16:28:49;2.97;;;2.33;;
12048;SDS011;6085;49.452;8.502;2023-04-24T16:32:52;1.90;;;1.80;;
12048;SDS011;6085;49.452;8.502;2023-04-24T16:36:54;2.45;;;2.25;;
12048;SDS011;6085;49.452;8.502;2023-04-24T16:40:56;2.30;;;2.10;;
12048;SDS011;6085;49.452;8.502;2023-04-24T16:44:58;1.92;;;1.80;;
12048;SDS011;6085;49.452;8.502;2023-04-24T16:49:02;4.28;;;2.10;;
12048;SDS011;6085;49.452;8.502;2023-04-24T16:53:03;3.13;;;1.85;;
12048;SDS011;6085;49.452;8.502;2023-04-24T16:57:05;1.90;;;1.80;;
12048;SDS011;6085;49.452;8.502;2023-04-24T17:01:07;1.70;;;1.60;;
12048;SDS011;6085;49.452;8.502;2023-04-24T17:05:11;1.73;;;1.63;;
12048;SDS011;6085;49.452;8.502;2023-04-24T17:09:13;1.88;;;1.77;;
12048;SDS011;6085;49.452;8.502;2023-04-24T17:13:16;1.95;;;1.85;;
12048;SDS011;6085;49.452;8.502;2023-04-24T17:17:18;1.85;;;1.75;;
12048;SDS011;6085;49.452;8.502;2023-04-24T17:21:23;2.10;;;1.73;;
12048;SDS011;6085;49.452;8.502;2023-04-24T17:25:25;2.45;;;1.60;;
12048;SDS011;6085;49.452;8.502;2023-04-24T17:29:31;1.95;;;1.63;;
12048;SDS011;6085;49.452;8.502;2023-04-24T17:33:33;2.15;;;2.05;;
12048;SDS011;6085;49.452;8.502;2023-04-24T17:37:37;2.05;;;1.83;;
12048;SDS011;6085;49.452;8.502;2023-04-24T17:41:39;2.38;;;1.80;;
12048;SDS011;6085;49.452;8.502;2023-04-24T17:45:41;3.13;;;1.98;;
12048;SDS011;6085;49.452;8.502;2023-04-24T17:49:44;2.30;;;2.10;;
12048;SDS011;6085;49.452;8.502;2023-04-24T17:53:47;2.15;;;1.95;;
12048;SDS011;6085;49.452;8.502;2023-04-24T17:57:49;2.53;;;2.10;;
12048;SDS011;6085;49.452;8.502;2023-04-24T18:01:51;2.88;;;1.73;;
12048;SDS011;6085;49.452;8.502;2023-04-24T18:05:53;1.80;;;1.70;;
12048;SDS011;6085;49.452;8.502;2023-04-24T18:09:57;1.67;;;1.58;;
12048;SDS011;6085;49.452;8.502;2023-04-24T18:13:58;1.88;;;1.65;;
12048;SDS011;6085;49.452;8.502;2023-04-24T18:18:01;1.75;;;1.65;;
12048;SDS011;6085;49.452;8.502;2023-04-24T18:22:02;2.00;;;1.60;;
12048;SDS011;6085;49.452;8.502;2023-04-24T18:26:06;1.80;;;1.70;;
12048;SDS011;6085;49.452;8.502;2023-04-24T18:30:08;1.92;;;1.70;;
12048;SDS011;6085;49.452;8.502;2023-04-24T18:34:11;2.35;;;1.98;;
12048;SDS011;6085;49.452;8.502;2023-04-24T18:38:13;2.05;;;1.80;;
12048;SDS011;6085;49.452;8.502;2023-04-24T18:42:16;1.90;;;1.80;;
12048;SDS011;6085;49.452;8.502;2023-04-24T18:46:18;1.65;;;1.55;;
12048;SDS011;6085;49.452;8.502;2023-04-24T18:50:20;2.05;;;1.95;;
12048;SDS011;6085;49.452;8.502;2023-04-24T18:54:24;2.05;;;1.80;;
12048;SDS011;6085;49.452;8.502;2023-04-24T18:58:28;1.92;;;1.83;;
12048;SDS011;6085;49.452;8.502;2023-04-24T19:02:30;2.25;;;1.85;;
12048;SDS011;6085;49.452;8.502;2023-04-24T19:06:33;2.10;;;1.90;;
12048;SDS011;6085;49.452;8.502;2023-04-24T19:10:35;2.42;;;2.22;;
12048;SDS011;6085;49.452;8.502;2023-04-24T19:14:38;2.55;;;2.30;;
12048;SDS011;6085;49.452;8.502;2023-04-24T19:18:40;2.42;;;2.05;;
12048;SDS011;6085;49.452;8.502;2023-04-24T19:22:42;2.38;;;2.17;;
12048;SDS011;6085;49.452;8.502;2023-04-24T19:26:45;3.17;;;2.03;;
12048;SDS011;6085;49.452;8.502;2023-04-24T19:30:48;2.05;;;1.95;;
12048;SDS011;6085;49.452;8.502;2023-04-24T19:34:50;1.92;;;1.80;;
12048;SDS011;6085;49.452;8.502;2023-04-24T19:38:52;1.90;;;1.80;;
12048;SDS011;6085;49.452;8.502;2023-04-24T19:42:55;2.05;;;1.95;;
12048;SDS011;6085;49.452;8.502;2023-04-24T19:46:58;2.00;;;1.90;;
12048;SDS011;6085;49.452;8.502;2023-04-24T19:51:00;1.98;;;1.88;;
12048;SDS011;6085;49.452;8.502;2023-04-24T19:55:03;2.20;;;2.05;;
12048;SDS011;6085;49.452;8.502;2023-04-24T19:59:05;2.40;;;2.25;;
12048;SDS011;6085;49.452;8.502;2023-04-24T20:03:09;2.47;;;2.33;;
12048;SDS011;6085;49.452;8.502;2023-04-24T20:07:11;3.33;;;2.40;;
12048;SDS011;6085;49.452;8.502;2023-04-24T20:11:13;2.88;;;2.30;;
12048;SDS011;6085;49.452;8.502;2023-04-24T20:15:15;2.20;;;2.10;;
12048;SDS011;6085;49.452;8.502;2023-04-24T20:19:18;2.10;;;1.90;;
12048;SDS011;6085;49.452;8.502;2023-04-24T20:23:20;2.50;;;2.30;;
12048;SDS011;6085;49.452;8.502;2023-04-24T20:27:25;2.50;;;2.30;;
12048;SDS011;6085;49.452;8.502;2023-04-24T20:31:29;2.20;;;2.10;;
12048;SDS011;6085;49.452;8.502;2023-04-24T20:35:32;2.40;;;2.20;;
12048;SDS011;6085;49.452;8.502;2023-04-24T20:39:35;2.60;;;2.40;;
12048;SDS011;6085;49.452;8.502;2023-04-24T20:43:37;2.50;;;2.30;;
12048;SDS011;6085;49.452;8.502;2023-04-24T20:47:40;4.00;;;2.45;;
12048;SDS011;6085;49.452;8.502;2023-04-24T20:51:43;2.85;;;2.45;;
12048;SDS011;6085;49.452;8.502;2023-04-24T20:55:45;4.55;;;2.80;;
12048;SDS011;6085;49.452;8.502;2023-04-24T20:59:47;2.70;;;2.50;;
12048;SDS011;6085;49.452;8.502;2023-04-24T21:03:49;2.85;;;2.60;;
12048;SDS011;6085;49.452;8.502;2023-04-24T21:07:53;2.50;;;2.30;;
12048;SDS011;6085;49.452;8.502;2023-04-24T21:11:56;2.50;;;2.30;;
12048;SDS011;6085;49.452;8.502;2023-04-24T21:15:59;2.13;;;2.00;;
12048;SDS011;6085;49.452;8.502;2023-04-24T21:20:01;2.95;;;2.30;;
12048;SDS011;6085;49.452;8.502;2023-04-24T21:24:05;2.70;;;2.50;;
12048;SDS011;6085;49.452;8.502;2023-04-24T21:28:07;2.50;;;2.30;;
12048;SDS011;6085;49.452;8.502;2023-04-24T21:32:09;2.60;;;2.40;;
12048;SDS011;6085;49.452;8.502;2023-04-24T21:36:11;2.45;;;2.25;;
12048;SDS011;6085;49.452;8.502;2023-04-24T21:40:14;2.38;;;2.20;;
12048;SDS011;6085;49.452;8.502;2023-04-24T21:44:16;2.42;;;2.22;;
12048;SDS011;6085;49.452;8.502;2023-04-24T21:48:18;2.78;;;2.58;;
12048;SDS011;6085;49.452;8.502;2023-04-24T21:52:20;2.90;;;2.70;;
12048;SDS011;6085;49.452;8.502;2023-04-24T21:56:24;2.60;;;2.40;;
12048;SDS011;6085;49.452;8.502;2023-04-24T22:00:26;3.08;;;2.78;;
12048;SDS011;6085;49.452;8.502;2023-04-24T22:04:28;3.00;;;2.80;;
12048;SDS011;6085;49.452;8.502;2023-04-24T22:08:30;3.42;;;3.13;;
12048;SDS011;6085;49.452;8.502;2023-04-24T22:12:33;2.90;;;2.70;;
12048;SDS011;6085;49.452;8.502;2023-04-24T22:16:35;3.03;;;2.72;;
12048;SDS011;6085;49.452;8.502;2023-04-24T22:20:40;2.75;;;2.55;;
12048;SDS011;6085;49.452;8.502;2023-04-24T22:24:42;2.97;;;2.63;;
12048;SDS011;6085;49.452;8.502;2023-04-24T22:28:46;2.70;;;2.50;;
12048;SDS011;6085;49.452;8.502;2023-04-24T22:32:47;2.47;;;2.25;;
12048;SDS011;6085;49.452;8.502;2023-04-24T22:36:49;2.72;;;2.53;;
12048;SDS011;6085;49.452;8.502;2023-04-24T22:40:51;2.90;;;2.70;;
12048;SDS011;6085;49.452;8.502;2023-04-24T22:44:55;2.80;;;2.60;;
12048;SDS011;6085;49.452;8.502;2023-04-24T22:48:57;2.50;;;2.30;;
12048;SDS011;6085;49.452;8.502;2023-04-24T22:52:59;2.60;;;2.40;;
12048;SDS011;6085;49.452;8.502;2023-04-24T22:57:02;2.72;;;2.53;;
12048;SDS011;6085;49.452;8.502;2023-04-24T23:01:05;3.10;;;2.80;;
12048;SDS011;6085;49.452;8.502;2023-04-24T23:05:07;2.42;;;2.22;;
12048;SDS011;6085;49.452;8.502;2023-04-24T23:09:10;2.90;;;2.70;;
12048;SDS011;6085;49.452;8.502;2023-04-24T23:13:12;2.72;;;2.50;;
12048;SDS011;6085;49.452;8.502;2023-04-24T23:17:15;2.83;;;2.63;;
12048;SDS011;6085;49.452;8.502;2023-04-24T23:21:18;2.60;;;2.38;;
12048;SDS011;6085;49.452;8.502;2023-04-24T23:25:20;2.45;;;2.25;;
12048;SDS011;6085;49.452;8.502;2023-04-24T23:29:22;2.55;;;2.35;;
12048;SDS011;6085;49.452;8.502;2023-04-24T23:33:26;2.78;;;2.58;;
12048;SDS011;6085;49.452;8.502;2023-04-24T23:37:28;2.97;;;2.67;;
12048;SDS011;6085;49.452;8.502;2023-04-24T23:41:30;2.80;;;2.60;;
12048;SDS011;6085;49.452;8.502;2023-04-24T23:45:32;2.78;;;2.58;;
12048;SDS011;6085;49.452;8.502;2023-04-24T23:49:35;2.92;;;2.72;;
12048;SDS011;6085;49.452;8.502;2023-04-24T23:53:37;3.60;;;2.83;;
12048;SDS011;6085;49.452;8.502;2023-04-24T23:57:39;3.08;;;2.88;;
